Time;durP1;ratioP1;P1;durP2;ratioP2;P2;SDS_P1;SDS_P2;PMS_P1;PMS_P2;Temp;Humidity;BMP_temperature;BMP_pressure;BME280_temperature;BME280_humidity;BME280_pressure;Samples;Min_cycle;Max_cycle;Signal;HPM_P1;HPM_P2
2021/01/13 00:02:09;;;;;;;3.67;1.92;;;3.60;93.20;;;;;;4992157;28;20026;-57
2021/01/13 00:04:35;;;;;;;2.88;2.20;;;3.60;93.20;;;;;;4986350;28;20029;-56
2021/01/13 00:07:00;;;;;;;4.40;1.83;;;3.60;93.20;;;;;;4974080;28;20027;-57
2021/01/13 00:09:26;;;;;;;3.70;1.65;;;3.60;93.20;;;;;;4993255;28;20539;-56
2021/01/13 00:12:00;;;;;;;3.15;1.90;;;3.60;93.20;;;;;;4991860;28;20034;-59
2021/01/13 00:14:26;;;;;;;4.20;2.03;;;3.60;93.10;;;;;;4986117;28;20022;-58
2021/01/13 00:16:52;;;;;;;3.25;1.85;;;3.60;93.10;;;;;;4992095;28;20378;-57
2021/01/13 00:19:18;;;;;;;2.58;1.60;;;3.60;93.10;;;;;;4989485;28;20379;-56
2021/01/13 00:21:53;;;;;;;3.08;1.60;;;3.60;93.10;;;;;;4988487;28;20038;-57
2021/01/13 00:24:22;;;;;;;;;;;3.60;93.00;;;;;;4992656;28;20105;-58
2021/01/13 00:26:48;;;;;;;3.15;1.42;;;3.60;93.00;;;;;;4991872;28;20452;-56
2021/01/13 00:29:14;;;;;;;3.53;1.50;;;3.60;93.00;;;;;;4991664;28;20027;-57
2021/01/13 00:31:40;;;;;;;3.17;2.15;;;3.60;93.00;;;;;;4990544;28;20390;-58
2021/01/13 00:34:15;;;;;;;1.92;1.38;;;3.60;93.00;;;;;;4986595;28;20057;-61
2021/01/13 00:36:40;;;;;;;3.58;1.70;;;3.60;93.00;;;;;;4988498;28;20485;-59
2021/01/13 00:39:06;;;;;;;2.78;1.65;;;3.60;93.10;;;;;;4989466;28;20128;-58
2021/01/13 00:41:32;;;;;;;3.13;1.35;;;3.60;93.10;;;;;;4985628;28;20049;-56
2021/01/13 00:43:57;;;;;;;3.67;1.90;;;3.60;93.00;;;;;;4984000;28;20478;-57
2021/01/13 00:46:23;;;;;;;4.13;1.95;;;3.60;93.00;;;;;;4986098;28;20026;-56
2021/01/13 00:48:49;;;;;;;3.35;1.70;;;3.60;93.10;;;;;;4992590;28;20077;-57
2021/01/13 00:51:14;;;;;;;3.05;2.00;;;3.60;93.10;;;;;;4969947;28;20038;-58
2021/01/13 00:53:40;;;;;;;4.03;1.60;;;3.60;93.10;;;;;;4990702;28;20027;-59
2021/01/13 00:56:06;;;;;;;4.15;1.73;;;3.60;93.10;;;;;;4991185;28;20029;-58
2021/01/13 00:58:31;;;;;;;3.05;1.98;;;3.60;93.10;;;;;;4989483;28;20394;-59
2021/01/13 01:00:58;;;;;;;2.05;1.40;;;3.60;93.10;;;;;;4974674;28;20391;-57
2021/01/13 01:03:23;;;;;;;3.50;1.40;;;3.60;93.10;;;;;;4988409;28;20514;-58
2021/01/13 01:05:49;;;;;;;2.85;1.40;;;3.60;93.10;;;;;;4967309;28;20133;-57
2021/01/13 01:08:15;;;;;;;3.75;1.45;;;3.60;93.20;;;;;;4991056;28;20466;-59
2021/01/13 01:10:41;;;;;;;3.05;1.45;;;3.60;93.20;;;;;;4991048;28;20053;-57
2021/01/13 01:13:07;;;;;;;2.33;1.58;;;3.60;93.20;;;;;;4965521;28;20077;-58
2021/01/13 01:15:35;;;;;;;2.53;1.48;;;3.60;93.20;;;;;;4991708;28;20026;-57
2021/01/13 01:18:01;;;;;;;3.22;1.85;;;3.60;93.20;;;;;;4982833;28;20494;-59
2021/01/13 01:20:27;;;;;;;3.22;1.52;;;3.60;93.20;;;;;;4992737;28;20028;-57
2021/01/13 01:22:53;;;;;;;2.63;1.73;;;3.60;93.20;;;;;;4973556;28;20100;-58
2021/01/13 01:25:19;;;;;;;2.75;1.45;;;3.60;93.20;;;;;;4991914;28;20110;-59
2021/01/13 01:27:50;;;;;;;3.03;1.70;;;3.60;93.20;;;;;;4990676;28;20054;-56
2021/01/13 01:30:16;;;;;;;1.75;1.20;;;3.60;93.20;;;;;;4990192;28;20023;-57
2021/01/13 01:32:41;;;;;;;3.20;1.90;;;3.60;93.30;;;;;;4984842;28;20026;-59
2021/01/13 01:35:07;;;;;;;5.97;1.60;;;3.60;93.20;;;;;;4991120;28;20061;-58
2021/01/13 01:37:34;;;;;;;1.80;1.30;;;3.60;93.30;;;;;;4990874;28;20030;-59
2021/01/13 01:40:00;;;;;;;1.77;1.48;;;3.60;93.30;;;;;;4990794;28;20093;-57
2021/01/13 01:42:25;;;;;;;2.35;1.40;;;3.60;93.20;;;;;;4983792;28;20031;-59
2021/01/13 01:44:54;;;;;;;2.28;1.60;;;3.60;93.30;;;;;;4981367;28;20073;-59
2021/01/13 01:47:19;;;;;;;4.30;1.48;;;3.60;93.30;;;;;;4991704;28;20018;-57
2021/01/13 01:49:45;;;;;;;2.63;1.50;;;3.70;93.30;;;;;;4984325;28;20037;-56
2021/01/13 01:52:14;;;;;;;2.15;1.58;;;3.60;93.30;;;;;;4990655;28;20101;-56
2021/01/13 01:54:49;;;;;;;3.40;1.83;;;3.60;93.30;;;;;;4976207;28;20518;-57
2021/01/13 01:57:16;;;;;;;;;;;3.60;93.20;;;;;;4987096;28;20466;-58
2021/01/13 02:00:02;;;;;;;3.38;1.77;;;3.60;93.20;;;;;;4982289;28;19956;-58
2021/01/13 02:02:36;;;;;;;1.63;1.30;;;3.60;93.10;;;;;;4988001;28;20088;-58
2021/01/13 02:05:02;;;;;;;2.22;1.60;;;3.60;93.20;;;;;;4984115;28;20026;-58
2021/01/13 02:07:29;;;;;;;1.75;1.25;;;3.60;93.20;;;;;;4991177;28;20449;-58
2021/01/13 02:09:55;;;;;;;2.17;1.23;;;3.60;93.20;;;;;;4987783;28;20030;-57
2021/01/13 02:12:26;;;;;;;1.60;1.30;;;3.60;93.20;;;;;;4961016;28;20030;-59
2021/01/13 02:14:52;;;;;;;1.60;1.38;;;3.60;93.20;;;;;;4980083;28;20057;-58
2021/01/13 02:17:20;;;;;;;1.98;1.35;;;3.60;93.10;;;;;;4984584;28;20026;-57
2021/01/13 02:19:48;;;;;;;2.65;1.30;;;3.60;93.20;;;;;;4989289;28;20041;-58
2021/01/13 02:22:21;;;;;;;3.10;1.58;;;3.60;93.10;;;;;;4987743;28;20160;-56
2021/01/13 02:25:11;;;;;;;2.92;1.65;;;3.60;93.10;;;;;;4968473;28;20054;-58
2021/01/13 02:27:51;;;;;;;2.63;1.70;;;3.60;93.00;;;;;;4985657;28;20072;-58
2021/01/13 02:30:18;;;;;;;2.90;1.50;;;3.60;93.00;;;;;;4966124;28;20022;-57
2021/01/13 02:32:47;;;;;;;1.77;1.40;;;3.60;93.00;;;;;;4987899;28;20064;-56
2021/01/13 02:35:15;;;;;;;2.40;1.30;;;3.60;93.00;;;;;;4986329;28;20065;-58
2021/01/13 02:38:08;;;;;;;2.65;1.50;;;3.60;92.90;;;;;;4988135;28;20204;-56
2021/01/13 02:40:34;;;;;;;1.85;1.40;;;3.60;93.00;;;;;;4987801;28;20026;-56
2021/01/13 02:43:08;;;;;;;2.25;1.27;;;3.60;93.00;;;;;;4986430;28;20029;-56
2021/01/13 02:45:35;;;;;;;2.15;1.48;;;3.60;93.00;;;;;;4986869;28;20022;-56
2021/01/13 02:48:12;;;;;;;2.63;1.20;;;3.60;92.90;;;;;;4986771;28;20031;-57
2021/01/13 02:50:49;;;;;;;1.23;1.08;;;3.60;93.00;;;;;;4976704;28;20030;-59
2021/01/13 02:53:15;;;;;;;1.50;1.33;;;3.60;93.10;;;;;;4982558;28;20459;-58
2021/01/13 02:55:46;;;;;;;1.55;1.10;;;3.60;93.10;;;;;;4985717;28;20040;-58
2021/01/13 02:58:13;;;;;;;1.50;1.30;;;3.60;93.00;;;;;;4985766;28;20023;-56
2021/01/13 03:00:38;;;;;;;1.50;1.10;;;3.60;93.00;;;;;;4982352;28;20030;-56
2021/01/13 03:03:04;;;;;;;1.77;1.27;;;3.60;93.10;;;;;;4985808;28;20038;-58
2021/01/13 03:05:30;;;;;;;1.30;1.20;;;3.60;93.10;;;;;;4984165;28;20066;-58
2021/01/13 03:07:56;;;;;;;1.33;1.20;;;3.60;93.10;;;;;;4987756;28;20029;-56
2021/01/13 03:10:25;;;;;;;1.27;1.00;;;3.60;93.10;;;;;;4973642;28;20401;-56
2021/01/13 03:13:01;;;;;;;1.80;1.30;;;3.60;93.20;;;;;;4987998;28;20048;-57
2021/01/13 03:15:30;;;;;;;2.92;1.25;;;3.60;93.20;;;;;;4967557;28;20507;-57
2021/01/13 03:18:07;;;;;;;1.33;1.23;;;3.60;93.20;;;;;;4983303;28;20351;-57
2021/01/13 03:21:01;;;;;;;1.88;1.30;;;3.60;93.10;;;;;;4982836;28;20025;-57
2021/01/13 03:24:11;;;;;;;2.05;1.30;;;3.60;93.20;;;;;;4987220;28;20045;-58
2021/01/13 03:26:38;;;;;;;1.52;1.10;;;3.60;93.10;;;;;;4952690;28;20073;-56
2021/01/13 03:29:03;;;;;;;1.52;1.20;;;3.60;93.10;;;;;;4986681;28;20042;-57
2021/01/13 03:31:30;;;;;;;1.40;1.20;;;3.60;93.10;;;;;;4970063;28;20030;-56
2021/01/13 03:34:22;;;;;;;1.40;1.27;;;3.60;93.10;;;;;;4972159;28;20525;-57
2021/01/13 03:36:58;;;;;;;1.30;1.17;;;3.60;93.10;;;;;;4991790;28;20077;-56
2021/01/13 03:39:23;;;;;;;;;;;3.60;93.10;;;;;;4986358;28;20022;-58
2021/01/13 03:41:52;;;;;;;;;;;3.60;93.00;;;;;;4986233;28;20245;-56
2021/01/13 03:44:22;;;;;;;2.05;1.27;;;3.60;93.00;;;;;;4993206;28;20349;-57
2021/01/13 03:46:48;;;;;;;1.45;1.10;;;3.60;93.00;;;;;;4987263;28;20019;-58
2021/01/13 03:49:13;;;;;;;1.73;1.20;;;3.60;93.00;;;;;;4984673;28;20057;-57
2021/01/13 03:52:02;;;;;;;2.38;1.55;;;3.60;92.90;;;;;;4958995;28;20074;-59
2021/01/13 03:54:38;;;;;;;1.33;0.90;;;3.60;92.90;;;;;;4987236;28;20095;-58
2021/01/13 03:57:05;;;;;;;1.38;1.10;;;3.60;92.90;;;;;;4991557;28;20084;-57
2021/01/13 03:59:42;;;;;;;1.20;1.10;;;3.60;92.90;;;;;;4993650;28;20033;-58
2021/01/13 04:02:08;;;;;;;1.40;1.20;;;3.60;92.90;;;;;;4992429;28;20073;-56
2021/01/13 04:04:41;;;;;;;1.48;1.00;;;3.60;92.90;;;;;;4984796;28;20497;-57
2021/01/13 04:07:08;;;;;;;1.58;1.20;;;3.60;92.80;;;;;;4980531;28;20096;-58
2021/01/13 04:09:34;;;;;;;1.63;1.33;;;3.60;92.80;;;;;;4991479;28;20108;-58
2021/01/13 04:12:15;;;;;;;1.20;0.98;;;3.60;92.80;;;;;;4992859;28;20470;-58
2021/01/13 04:14:54;;;;;;;1.80;1.40;;;3.60;92.90;;;;;;4986321;28;20575;-58
2021/01/13 04:17:19;;;;;;;1.85;1.15;;;3.60;92.80;;;;;;4987699;28;20549;-58
2021/01/13 04:19:46;;;;;;;1.40;1.15;;;3.60;92.90;;;;;;4964900;28;20035;-56
2021/01/13 04:22:16;;;;;;;1.95;1.25;;;3.60;92.80;;;;;;4984736;28;20027;-58
2021/01/13 04:24:42;;;;;;;1.45;1.23;;;3.60;92.80;;;;;;4992753;28;20022;-58
2021/01/13 04:27:10;;;;;;;1.98;1.40;;;3.60;92.80;;;;;;4993187;28;20026;-58
2021/01/13 04:29:35;;;;;;;2.05;1.42;;;3.60;92.80;;;;;;4991758;28;20390;-58
2021/01/13 04:32:01;;;;;;;1.60;1.20;;;3.60;92.80;;;;;;4988033;28;20198;-57
2021/01/13 04:34:27;;;;;;;1.40;1.08;;;3.60;92.80;;;;;;4990048;28;20394;-56
2021/01/13 04:36:52;;;;;;;1.35;1.17;;;3.60;92.70;;;;;;4993165;28;20030;-58
2021/01/13 04:39:18;;;;;;;0.95;0.85;;;3.60;92.80;;;;;;4990726;28;20038;-56
2021/01/13 04:42:02;;;;;;;1.17;1.08;;;3.60;92.80;;;;;;4978570;28;20026;-59
2021/01/13 04:44:33;;;;;;;1.27;1.10;;;3.60;92.80;;;;;;4991929;28;20391;-57
2021/01/13 04:47:06;;;;;;;1.20;1.10;;;3.60;92.70;;;;;;4982598;28;20402;-57
2021/01/13 04:49:33;;;;;;;2.35;1.55;;;3.60;92.70;;;;;;4991078;28;20031;-58
2021/01/13 04:52:19;;;;;;;2.35;1.20;;;3.60;92.70;;;;;;4989758;28;20023;-58
2021/01/13 04:54:46;;;;;;;1.65;1.20;;;3.60;92.70;;;;;;4992305;28;20042;-56
2021/01/13 04:57:39;;;;;;;1.35;1.20;;;3.60;92.70;;;;;;4990660;28;20183;-57
2021/01/13 05:00:12;;;;;;;1.42;1.10;;;3.60;92.70;;;;;;4958774;28;20089;-58
2021/01/13 05:03:05;;;;;;;1.33;1.10;;;3.60;92.60;;;;;;4991227;28;20117;-57
2021/01/13 05:05:31;;;;;;;1.52;1.10;;;3.60;92.70;;;;;;4983179;28;20463;-57
2021/01/13 05:08:16;;;;;;;1.77;1.30;;;3.60;92.70;;;;;;4970499;28;20030;-58
2021/01/13 05:10:41;;;;;;;1.88;1.30;;;3.60;92.70;;;;;;4965585;28;20034;-58
2021/01/13 05:13:07;;;;;;;1.48;1.20;;;3.60;92.70;;;;;;4972720;28;20045;-57
2021/01/13 05:15:33;;;;;;;1.52;1.20;;;3.60;92.70;;;;;;4990469;28;20106;-56
2021/01/13 05:18:08;;;;;;;1.40;1.30;;;3.60;92.70;;;;;;4989615;28;20026;-58
2021/01/13 05:20:40;;;;;;;1.88;1.40;;;3.60;92.70;;;;;;4989949;28;20360;-60
2021/01/13 05:23:09;;;;;;;1.63;1.40;;;3.60;92.70;;;;;;4991503;28;20230;-58
2021/01/13 05:25:44;;;;;;;2.13;1.55;;;3.60;92.70;;;;;;4988400;28;20397;-57
2021/01/13 05:28:31;;;;;;;1.63;1.50;;;3.60;92.70;;;;;;4990981;28;20078;-57
2021/01/13 05:30:58;;;;;;;2.00;1.42;;;3.60;92.80;;;;;;4989828;28;20031;-57
2021/01/13 05:33:30;;;;;;;1.48;1.20;;;3.60;92.80;;;;;;4971459;28;20664;-57
2021/01/13 05:35:57;;;;;;;1.90;1.20;;;3.60;92.70;;;;;;4956108;28;20054;-60
2021/01/13 05:39:00;;;;;;;1.52;1.42;;;3.60;92.80;;;;;;4983945;28;20574;-57
2021/01/13 05:41:26;;;;;;;1.50;1.23;;;3.60;92.80;;;;;;4984884;28;20486;-57
2021/01/13 05:43:51;;;;;;;2.33;1.60;;;3.60;92.80;;;;;;4991688;28;20022;-57
2021/01/13 05:46:18;;;;;;;1.60;1.30;;;3.60;92.80;;;;;;4991496;28;20022;-57
2021/01/13 05:48:47;;;;;;;1.50;1.40;;;3.60;92.90;;;;;;4990943;28;20026;-57
2021/01/13 05:51:13;;;;;;;1.60;1.17;;;3.60;92.80;;;;;;4988164;28;20062;-57
2021/01/13 05:53:49;;;;;;;1.25;1.15;;;3.60;92.90;;;;;;4973260;28;20060;-57
2021/01/13 05:56:15;;;;;;;1.30;1.20;;;3.60;92.90;;;;;;4988517;28;20073;-57
2021/01/13 05:58:40;;;;;;;2.17;1.45;;;3.60;93.20;;;;;;4989243;28;20037;-58
2021/01/13 06:01:12;;;;;;;1.63;1.50;;;3.60;92.90;;;;;;4970352;28;20080;-58
2021/01/13 06:03:38;;;;;;;3.03;1.33;;;3.60;92.90;;;;;;4977653;28;20037;-57
2021/01/13 06:06:04;;;;;;;1.95;1.60;;;3.60;92.90;;;;;;4970068;28;20042;-58
2021/01/13 06:08:31;;;;;;;2.15;1.40;;;3.60;92.90;;;;;;4978570;28;20410;-57
2021/01/13 06:11:00;;;;;;;1.50;1.33;;;3.60;93.00;;;;;;4973488;28;20030;-57
2021/01/13 06:13:31;;;;;;;1.63;1.40;;;3.60;93.00;;;;;;4989856;28;20026;-57
2021/01/13 06:16:02;;;;;;;1.73;1.50;;;3.60;93.00;;;;;;4972908;28;20030;-58
2021/01/13 06:18:28;;;;;;;3.15;2.15;;;3.60;93.00;;;;;;4987913;28;20049;-59
2021/01/13 06:21:00;;;;;;;1.75;1.65;;;3.60;93.00;;;;;;4986210;28;20034;-56
2021/01/13 06:23:26;;;;;;;1.80;1.52;;;3.60;93.10;;;;;;4989929;28;20031;-57
2021/01/13 06:25:53;;;;;;;1.73;1.60;;;3.60;93.10;;;;;;4989523;28;20023;-58
2021/01/13 06:28:26;;;;;;;2.13;1.73;;;3.60;93.00;;;;;;4983778;28;20042;-58
2021/01/13 06:31:05;;;;;;;1.95;1.70;;;3.60;93.10;;;;;;4967229;28;20260;-56
2021/01/13 06:33:40;;;;;;;3.40;1.88;;;3.60;93.10;;;;;;4971821;28;20014;-58
2021/01/13 06:36:07;;;;;;;2.00;1.70;;;3.60;93.20;;;;;;4990637;28;20030;-56
2021/01/13 06:38:52;;;;;;;4.57;1.88;;;3.60;93.10;;;;;;4973161;28;20034;-59
2021/01/13 06:41:19;;;;;;;2.00;1.80;;;3.60;93.10;;;;;;4987504;28;20183;-59
2021/01/13 06:44:06;;;;;;;2.13;1.73;;;3.50;93.10;;;;;;4988559;28;20085;-59
2021/01/13 06:46:33;;;;;;;2.17;1.98;;;3.60;93.20;;;;;;4975285;28;20398;-57
2021/01/13 06:49:13;;;;;;;1.90;1.63;;;3.60;93.20;;;;;;4969549;28;20492;-57
2021/01/13 06:51:50;;;;;;;3.03;2.25;;;3.60;93.10;;;;;;4978691;28;20026;-59
2021/01/13 06:54:20;;;;;;;2.20;2.00;;;3.60;93.10;;;;;;4972553;28;20034;-56
2021/01/13 06:56:49;;;;;;;2.55;1.95;;;3.60;93.00;;;;;;4969436;28;20042;-58
2021/01/13 06:59:15;;;;;;;2.58;2.10;;;3.60;93.10;;;;;;4988724;28;20081;-59
2021/01/13 07:01:48;;;;;;;2.20;1.92;;;3.60;93.10;;;;;;4972816;28;20390;-59
2021/01/13 07:04:13;;;;;;;2.25;2.05;;;3.60;93.00;;;;;;4989621;28;20035;-57
2021/01/13 07:06:39;;;;;;;2.38;2.17;;;3.60;93.00;;;;;;4990421;28;20274;-59
2021/01/13 07:09:04;;;;;;;2.55;2.10;;;3.60;93.10;;;;;;4986920;28;20117;-59
2021/01/13 07:11:31;;;;;;;2.28;2.05;;;3.60;93.10;;;;;;4979460;28;20022;-58
2021/01/13 07:14:01;;;;;;;2.30;2.10;;;3.60;93.10;;;;;;4958543;28;20058;-57
2021/01/13 07:16:28;;;;;;;2.63;2.05;;;3.60;93.10;;;;;;4982353;28;20027;-56
2021/01/13 07:18:59;;;;;;;2.75;2.20;;;3.60;93.20;;;;;;4986418;28;20121;-57
2021/01/13 07:21:36;;;;;;;3.17;2.28;;;3.60;93.10;;;;;;4950397;28;20469;-58
2021/01/13 07:24:01;;;;;;;2.28;2.08;;;3.50;93.10;;;;;;4985172;28;20050;-57
2021/01/13 07:26:27;;;;;;;2.22;1.98;;;3.50;93.10;;;;;;4975504;28;20042;-62
2021/01/13 07:28:52;;;;;;;2.25;2.03;;;3.60;93.10;;;;;;4968801;28;20443;-59
2021/01/13 07:31:18;;;;;;;2.25;2.03;;;3.50;93.00;;;;;;4982829;28;20554;-59
2021/01/13 07:33:43;;;;;;;2.30;2.10;;;3.50;93.00;;;;;;4984659;28;20129;-59
2021/01/13 07:36:13;;;;;;;2.42;2.22;;;3.50;93.00;;;;;;4964491;28;20070;-57
2021/01/13 07:38:39;;;;;;;2.80;2.10;;;3.50;93.00;;;;;;4974873;28;20026;-59
2021/01/13 07:41:06;;;;;;;3.00;2.30;;;3.50;93.00;;;;;;4971191;28;20035;-59
2021/01/13 07:44:13;;;;;;;2.95;2.10;;;3.50;93.00;;;;;;4980569;28;20019;-57
2021/01/13 07:46:47;;;;;;;2.55;2.35;;;3.50;92.90;;;;;;4966894;28;20077;-58
2021/01/13 07:49:22;;;;;;;6.32;2.30;;;3.60;93.00;;;;;;4974829;28;20062;-58
2021/01/13 07:51:52;;;;;;;4.30;2.30;;;3.60;93.00;;;;;;4983921;28;20086;-58
2021/01/13 07:54:33;;;;;;;8.57;2.70;;;3.60;92.90;;;;;;4970818;28;20081;-59
2021/01/13 07:57:00;;;;;;;21.73;4.47;;;3.60;92.90;;;;;;4988930;28;20690;-57
2021/01/13 07:59:41;;;;;;;10.13;2.55;;;3.60;92.90;;;;;;4967322;28;20058;-59
2021/01/13 08:02:37;;;;;;;14.30;2.90;;;3.60;92.90;;;;;;4957687;28;20059;-58
2021/01/13 08:05:41;;;;;;;9.43;2.78;;;3.70;92.90;;;;;;4969470;28;20034;-58
2021/01/13 08:08:10;;;;;;;6.90;2.92;;;3.70;92.80;;;;;;4983568;28;20041;-57
2021/01/13 08:10:37;;;;;;;12.95;3.08;;;3.70;92.80;;;;;;4959626;28;20191;-58
2021/01/13 08:13:14;;;;;;;7.70;2.80;;;3.70;92.70;;;;;;4980958;28;20069;-59
2021/01/13 08:16:02;;;;;;;5.05;2.70;;;3.70;92.70;;;;;;4976570;28;20074;-58
2021/01/13 08:19:00;;;;;;;11.60;3.28;;;3.70;92.70;;;;;;4985700;28;20034;-59
2021/01/13 08:23:59;;;;;;;8.80;2.75;;;3.70;92.60;;;;;;4982354;28;20129;-64
2021/01/13 08:26:24;;;;;;;4.95;2.75;;;3.70;92.60;;;;;;4972953;28;20113;-59
2021/01/13 08:28:52;;;;;;;20.90;3.30;;;3.70;92.60;;;;;;4983456;28;20453;-58
2021/01/13 08:31:22;;;;;;;14.23;3.72;;;3.70;92.60;;;;;;4991965;28;20034;-60
2021/01/13 08:33:49;;;;;;;15.93;3.92;;;3.70;92.60;;;;;;4970373;28;20052;-59
2021/01/13 08:36:15;;;;;;;7.72;3.03;;;3.70;92.60;;;;;;4987063;28;20030;-59
2021/01/13 08:39:03;;;;;;;9.50;3.58;;;3.70;92.50;;;;;;4986019;28;20042;-59
2021/01/13 08:41:30;;;;;;;15.77;3.33;;;3.70;92.50;;;;;;4984306;28;20149;-57
2021/01/13 08:44:04;;;;;;;11.50;3.30;;;3.80;92.50;;;;;;4980705;28;20114;-59
2021/01/13 08:46:48;;;;;;;17.70;3.50;;;3.80;92.40;;;;;;4986850;28;20374;-58
2021/01/13 08:49:22;;;;;;;9.35;3.05;;;3.80;92.30;;;;;;4975142;28;20049;-59
2021/01/13 08:52:15;;;;;;;14.45;3.67;;;3.80;92.30;;;;;;4988762;28;20025;-59
2021/01/13 08:54:41;;;;;;;18.15;3.72;;;3.90;92.30;;;;;;4981958;28;20031;-58
2021/01/13 08:57:08;;;;;;;12.20;3.17;;;3.80;92.20;;;;;;4983869;28;20038;-57
2021/01/13 08:59:38;;;;;;;29.30;4.95;;;3.90;92.20;;;;;;4991429;28;20044;-60
2021/01/13 09:02:08;;;;;;;23.02;3.90;;;3.90;92.20;;;;;;4983352;28;20019;-59
2021/01/13 09:04:53;;;;;;;67.53;7.72;;;3.90;92.20;;;;;;4985574;28;20037;-58
2021/01/13 09:07:21;;;;;;;18.00;4.60;;;3.90;92.20;;;;;;4985035;28;20549;-59
2021/01/13 09:10:05;;;;;;;31.58;4.60;;;3.90;92.20;;;;;;4987693;28;20456;-60
2021/01/13 09:12:39;;;;;;;15.35;4.78;;;3.90;92.20;;;;;;4983786;28;20446;-57
2021/01/13 09:15:07;;;;;;;51.85;7.57;;;3.90;92.20;;;;;;4988805;28;20034;-59
2021/01/13 09:17:37;;;;;;;39.95;6.28;;;4.00;92.20;;;;;;4993968;28;20030;-60
2021/01/13 09:20:04;;;;;;;55.92;6.93;;;4.00;92.20;;;;;;4951716;28;20026;-58
2021/01/13 09:22:42;;;;;;;44.53;7.22;;;4.00;92.20;;;;;;4975753;28;20043;-59
2021/01/13 09:25:16;;;;;;;20.25;5.35;;;4.00;92.20;;;;;;4986738;28;20471;-59
2021/01/13 09:27:44;;;;;;;30.65;5.32;;;4.00;92.30;;;;;;4976205;28;20026;-57
2021/01/13 09:30:15;;;;;;;21.38;5.03;;;4.00;92.20;;;;;;4977054;28;20030;-59
2021/01/13 09:32:51;;;;;;;17.13;4.50;;;4.10;92.20;;;;;;4968851;28;20034;-59
2021/01/13 09:35:27;;;;;;;20.60;4.28;;;4.10;92.10;;;;;;4981361;28;20094;-59
2021/01/13 09:38:01;;;;;;;21.65;5.13;;;4.10;92.10;;;;;;4962692;28;20394;-58
2021/01/13 09:40:51;;;;;;;16.75;4.70;;;4.10;92.00;;;;;;4985333;28;20023;-59
2021/01/13 09:43:28;;;;;;;28.58;4.97;;;4.10;92.00;;;;;;4984274;28;20117;-58
2021/01/13 09:45:55;;;;;;;16.10;5.07;;;4.10;92.00;;;;;;4974331;28;20033;-57
2021/01/13 09:48:21;;;;;;;21.63;5.03;;;4.30;92.00;;;;;;4968607;28;20501;-59
2021/01/13 09:50:53;;;;;;;11.48;4.00;;;4.10;91.90;;;;;;4974110;28;20038;-60
2021/01/13 09:53:18;;;;;;;16.88;5.22;;;4.10;91.90;;;;;;4986924;28;20125;-57
2021/01/13 09:55:44;;;;;;;9.77;3.75;;;4.10;91.90;;;;;;4986619;28;20026;-58
2021/01/13 09:58:17;;;;;;;14.68;4.95;;;4.20;91.90;;;;;;4977137;28;20045;-58
2021/01/13 10:00:42;;;;;;;13.68;4.13;;;4.20;91.90;;;;;;4958089;28;20290;-59
2021/01/13 10:03:11;;;;;;;10.82;4.13;;;4.20;91.90;;;;;;4978251;28;20084;-60
2021/01/13 10:05:37;;;;;;;12.15;4.07;;;4.20;91.90;;;;;;4973423;28;20750;-59
2021/01/13 10:08:03;;;;;;;17.60;5.22;;;4.20;91.80;;;;;;4976553;28;20035;-59
2021/01/13 10:10:28;;;;;;;8.77;4.50;;;4.20;91.80;;;;;;4984353;28;20037;-59
2021/01/13 10:12:54;;;;;;;14.45;5.13;;;4.20;91.90;;;;;;4974445;28;20031;-59
2021/01/13 10:15:20;;;;;;;10.15;4.20;;;4.20;91.80;;;;;;4983824;28;20478;-58
2021/01/13 10:17:45;;;;;;;12.82;4.40;;;4.20;91.80;;;;;;4982360;28;20545;-60
2021/01/13 10:20:21;;;;;;;14.55;4.90;;;4.30;91.80;;;;;;4983133;28;20039;-59
2021/01/13 10:22:47;;;;;;;13.30;4.57;;;4.30;91.80;;;;;;4954424;28;20023;-59
2021/01/13 10:25:27;;;;;;;11.80;4.85;;;4.30;91.80;;;;;;4980022;28;20102;-57
2021/01/13 10:27:52;;;;;;;11.23;4.60;;;4.30;91.80;;;;;;4993729;28;20074;-57
2021/01/13 10:30:18;;;;;;;10.25;4.45;;;4.30;91.80;;;;;;4965015;28;20079;-58
2021/01/13 10:32:49;;;;;;;13.48;4.18;;;4.40;91.80;;;;;;4987345;28;20034;-59
2021/01/13 10:35:16;;;;;;;19.38;4.88;;;4.40;91.80;;;;;;4981883;28;20584;-59
2021/01/13 10:37:47;;;;;;;9.38;4.45;;;4.30;91.70;;;;;;4973288;28;20044;-59
2021/01/13 10:40:14;;;;;;;8.68;4.20;;;4.40;91.70;;;;;;4968234;28;20034;-58
2021/01/13 10:42:39;;;;;;;9.90;4.03;;;4.40;91.70;;;;;;4976923;28;20045;-58
2021/01/13 10:45:14;;;;;;;11.20;4.75;;;4.40;91.70;;;;;;4964040;28;20493;-59
2021/01/13 10:47:52;;;;;;;12.38;4.55;;;4.40;91.60;;;;;;4981628;28;20042;-60
2021/01/13 10:50:17;;;;;;;13.93;4.45;;;4.40;91.60;;;;;;4965576;28;20506;-58
2021/01/13 10:52:45;;;;;;;11.02;4.40;;;4.40;91.60;;;;;;4989131;28;20042;-59
2021/01/13 10:55:10;;;;;;;13.40;4.95;;;4.40;91.60;;;;;;4947718;28;20394;-57
2021/01/13 10:57:36;;;;;;;9.13;4.25;;;4.50;91.60;;;;;;4958863;28;20030;-58
2021/01/13 11:00:09;;;;;;;8.20;4.50;;;4.50;91.60;;;;;;4985504;28;20030;-58
2021/01/13 11:02:35;;;;;;;9.70;3.90;;;4.50;91.50;;;;;;4975795;28;20114;-59
2021/01/13 11:05:01;;;;;;;10.45;4.43;;;4.50;91.50;;;;;;4983604;28;20172;-58
2021/01/13 11:07:36;;;;;;;11.88;4.47;;;4.50;91.50;;;;;;4952916;28;20510;-59
2021/01/13 11:10:03;;;;;;;11.05;4.85;;;4.50;91.50;;;;;;4988475;28;20533;-58
2021/01/13 11:12:28;;;;;;;12.18;4.30;;;4.70;91.50;;;;;;4986566;28;20042;-58
2021/01/13 11:14:54;;;;;;;17.98;4.55;;;4.60;91.50;;;;;;4990932;28;20022;-60
2021/01/13 11:17:26;;;;;;;10.10;4.32;;;4.50;91.40;;;;;;4973913;28;20025;-59
2021/01/13 11:19:52;;;;;;;13.95;3.92;;;4.50;91.40;;;;;;4962598;28;20566;-59
2021/01/13 11:22:18;;;;;;;13.90;3.80;;;4.60;91.40;;;;;;4981737;28;20038;-58
2021/01/13 11:24:45;;;;;;;8.75;4.50;;;4.60;91.40;;;;;;4967989;28;20037;-60
2021/01/13 11:27:13;;;;;;;12.60;4.75;;;4.70;91.40;;;;;;4988325;28;20041;-58
2021/01/13 11:29:40;;;;;;;11.15;4.35;;;4.60;91.40;;;;;;4981952;28;20031;-59
2021/01/13 11:32:06;;;;;;;11.35;4.50;;;4.70;91.30;;;;;;4973702;28;20019;-59
2021/01/13 11:34:32;;;;;;;7.50;4.13;;;4.60;91.30;;;;;;4967683;28;20034;-59
2021/01/13 11:37:11;;;;;;;9.30;4.32;;;4.70;91.30;;;;;;4992860;28;20109;-58
2021/01/13 11:39:45;;;;;;;7.50;4.00;;;4.70;91.30;;;;;;4952355;28;20034;-58
2021/01/13 11:42:17;;;;;;;9.77;4.72;;;4.70;91.30;;;;;;4982177;28;20074;-59
2021/01/13 11:45:09;;;;;;;9.40;4.50;;;4.70;91.30;;;;;;4987916;28;20030;-58
2021/01/13 11:47:35;;;;;;;10.05;4.25;;;4.70;91.20;;;;;;4966263;28;20018;-59
2021/01/13 11:50:14;;;;;;;9.13;4.80;;;4.70;91.20;;;;;;4972171;28;20021;-59
2021/01/13 11:52:46;;;;;;;9.93;4.72;;;4.80;91.20;;;;;;4968900;28;20034;-59
2021/01/13 11:55:12;;;;;;;13.93;4.40;;;4.80;91.20;;;;;;4987050;28;20015;-60
2021/01/13 11:57:37;;;;;;;12.45;4.90;;;4.80;91.20;;;;;;4987904;28;20042;-59
2021/01/13 12:00:24;;;;;;;12.80;4.63;;;4.80;91.20;;;;;;4981727;28;20146;-60
2021/01/13 12:02:53;;;;;;;11.00;4.38;;;4.80;91.20;;;;;;4987098;28;20035;-58
2021/01/13 12:05:23;;;;;;;18.25;4.65;;;4.80;91.10;;;;;;4986840;28;20053;-58
2021/01/13 12:08:06;;;;;;;14.10;4.20;;;4.80;91.10;;;;;;4983385;28;20031;-58
2021/01/13 12:10:34;;;;;;;15.13;4.60;;;4.90;91.40;;;;;;4982539;28;20027;-58
2021/01/13 12:13:26;;;;;;;11.68;4.68;;;4.80;91.10;;;;;;4977268;28;20030;-60
2021/01/13 12:15:54;;;;;;;10.68;4.80;;;4.90;91.10;;;;;;4969545;28;20311;-59
2021/01/13 12:18:24;;;;;;;7.38;4.28;;;4.90;91.10;;;;;;4990960;28;20060;-59
2021/01/13 12:20:51;;;;;;;9.13;3.85;;;4.90;91.00;;;;;;4954878;28;20117;-58
2021/01/13 12:23:26;;;;;;;10.88;4.72;;;4.90;91.00;;;;;;4954008;28;20502;-60
2021/01/13 12:25:51;;;;;;;8.52;3.83;;;5.00;91.00;;;;;;4983248;28;20054;-58
2021/01/13 12:28:17;;;;;;;6.88;4.25;;;4.90;91.00;;;;;;4985061;28;20034;-60
2021/01/13 12:30:53;;;;;;;12.82;4.38;;;5.00;91.00;;;;;;4987487;28;20029;-58
2021/01/13 12:33:19;;;;;;;6.22;3.95;;;5.00;91.00;;;;;;4987187;28;20050;-58
2021/01/13 12:35:45;;;;;;;8.23;4.20;;;5.00;91.30;;;;;;4986749;28;20057;-60
2021/01/13 12:38:10;;;;;;;11.07;4.82;;;5.00;91.00;;;;;;4971498;28;20030;-60
2021/01/13 12:40:36;;;;;;;7.82;4.70;;;5.00;91.00;;;;;;4980523;28;20034;-58
2021/01/13 12:43:14;;;;;;;6.80;4.18;;;5.00;91.00;;;;;;4972256;28;20022;-60
2021/01/13 12:45:39;;;;;;;7.55;4.13;;;5.00;90.90;;;;;;4985375;28;20069;-59
2021/01/13 12:48:06;;;;;;;6.28;4.00;;;5.10;91.00;;;;;;4987739;28;20038;-59
2021/01/13 12:50:31;;;;;;;12.43;3.88;;;5.10;91.00;;;;;;4984486;28;20209;-58
2021/01/13 12:52:57;;;;;;;9.18;4.00;;;5.10;91.00;;;;;;4989140;28;20046;-60
2021/01/13 12:55:22;;;;;;;9.18;4.32;;;5.10;91.00;;;;;;4966750;28;20027;-58
2021/01/13 12:57:48;;;;;;;8.30;3.72;;;5.10;91.00;;;;;;4989371;28;20117;-60
2021/01/13 13:00:14;;;;;;;6.07;3.70;;;5.10;91.00;;;;;;4978880;28;20061;-59
2021/01/13 13:02:40;;;;;;;6.90;3.88;;;5.20;91.00;;;;;;4984130;28;20038;-59
2021/01/13 13:05:06;;;;;;;4.95;3.53;;;5.20;91.00;;;;;;4970390;28;20038;-58
2021/01/13 13:07:34;;;;;;;5.75;3.67;;;5.20;91.00;;;;;;4982038;28;20030;-60
2021/01/13 13:10:00;;;;;;;4.95;3.65;;;5.20;91.10;;;;;;4984288;28;20479;-60
2021/01/13 13:12:26;;;;;;;10.15;3.75;;;5.20;91.00;;;;;;4989270;28;20027;-60
2021/01/13 13:14:51;;;;;;;5.05;3.22;;;5.20;91.00;;;;;;4965712;28;20027;-59
2021/01/13 13:17:17;;;;;;;7.00;3.50;;;5.30;91.10;;;;;;4966677;28;20435;-59